createdAt,value
2022-11-01T00:01:53.233Z,4.63
2022-11-01T00:04:20.212Z,5.50
2022-11-01T00:06:46.993Z,5.30
2022-11-01T00:09:16.131Z,5.25
2022-11-01T00:11:42.827Z,5.15
2022-11-01T00:14:12.861Z,5.22
2022-11-01T00:16:39.579Z,5.05
2022-11-01T00:19:06.041Z,5.07
2022-11-01T00:21:32.592Z,5.32
2022-11-01T00:24:01.537Z,5.53
2022-11-01T00:26:28.388Z,5.20
2022-11-01T00:28:55.005Z,4.90
2022-11-01T00:31:21.822Z,4.70
2022-11-01T00:33:51.237Z,4.55
2022-11-01T00:36:17.732Z,4.70
2022-11-01T00:38:44.283Z,4.93
2022-11-01T00:41:11.090Z,4.85
2022-11-01T00:43:37.616Z,4.75
2022-11-01T00:46:06.946Z,4.63
2022-11-01T00:48:33.527Z,4.50
2022-11-01T00:51:00.064Z,3.90
2022-11-01T00:53:26.833Z,4.13
2022-11-01T00:55:53.434Z,4.05
2022-11-01T00:58:19.928Z,4.25
2022-11-01T01:00:48.157Z,4.28
2022-11-01T01:03:17.233Z,4.50
2022-11-01T01:05:43.771Z,4.55
2022-11-01T01:08:10.485Z,3.45
2022-11-01T01:10:37.047Z,3.88
2022-11-01T01:13:04.426Z,3.55
2022-11-01T01:15:31.269Z,3.83
2022-11-01T01:18:00.433Z,3.97
2022-11-01T01:20:27.253Z,3.78
2022-11-01T01:22:54.054Z,4.25
2022-11-01T01:25:21.110Z,4.00
2022-11-01T01:27:47.834Z,4.15
2022-11-01T01:30:15.031Z,3.90
2022-11-01T01:32:42.288Z,4.00
2022-11-01T01:35:09.650Z,3.72
2022-11-01T01:37:38.585Z,3.92
2022-11-01T01:40:07.118Z,4.05
2022-11-01T01:42:38.807Z,4.22
2022-11-01T01:45:05.618Z,3.85
2022-11-01T01:47:38.580Z,4.03
2022-11-01T01:50:07.843Z,4.07
2022-11-01T01:52:47.996Z,4.22
2022-11-01T01:55:20.325Z,4.38
2022-11-01T01:57:51.472Z,4.50
2022-11-01T02:00:18.495Z,4.20
2022-11-01T02:02:45.435Z,4.35
2022-11-01T02:05:39.176Z,4.10
2022-11-01T02:08:07.034Z,4.50
2022-11-01T02:10:36.241Z,4.47
2022-11-01T02:13:10.948Z,4.00
2022-11-01T02:15:48.035Z,3.85
2022-11-01T02:18:56.193Z,3.70
2022-11-01T02:21:34.985Z,4.45
2022-11-01T02:24:16.486Z,3.95
2022-11-01T02:26:49.219Z,4.15
2022-11-01T02:29:38.985Z,4.18
2022-11-01T02:32:29.375Z,4.18
2022-11-01T02:35:19.410Z,3.75
2022-11-01T02:37:59.356Z,3.30
2022-11-01T02:40:53.645Z,3.78
2022-11-01T02:43:33.387Z,3.92
2022-11-01T02:46:23.161Z,4.15
2022-11-01T02:48:49.889Z,3.70
2022-11-01T02:51:19.990Z,3.70
2022-11-01T02:53:46.568Z,3.53
2022-11-01T02:56:17.593Z,3.70
2022-11-01T02:58:46.724Z,3.90
2022-11-01T03:01:21.385Z,3.47
2022-11-01T03:03:51.268Z,3.90
2022-11-01T03:06:26.676Z,3.45
2022-11-01T03:09:07.290Z,3.10
2022-11-01T03:11:55.253Z,3.25
2022-11-01T03:14:40.840Z,2.90
2022-11-01T03:17:23.213Z,2.70
2022-11-01T03:20:18.364Z,2.72
2022-11-01T03:22:50.035Z,2.25
2022-11-01T03:25:39.896Z,2.88
2022-11-01T03:28:14.083Z,2.38
2022-11-01T03:30:44.555Z,2.33
2022-11-01T03:33:16.120Z,2.20
2022-11-01T03:35:47.707Z,1.92
2022-11-01T03:38:19.168Z,1.90
2022-11-01T03:40:52.347Z,2.05
2022-11-01T03:43:20.900Z,1.73
2022-11-01T03:45:47.597Z,1.65
2022-11-01T03:48:14.348Z,1.52
2022-11-01T03:50:49.279Z,1.70
2022-11-01T03:53:16.133Z,1.42
2022-11-01T03:55:45.567Z,1.52
2022-11-01T03:58:12.199Z,1.30
2022-11-01T04:00:41.781Z,1.23
2022-11-01T04:03:09.885Z,1.10
2022-11-01T04:05:37.951Z,0.80
2022-11-01T04:08:08.571Z,0.93
2022-11-01T04:10:35.085Z,0.60
2022-11-01T04:13:02.282Z,1.10
2022-11-01T04:15:50.152Z,0.63
2022-11-01T04:18:42.836Z,0.60
2022-11-01T04:21:13.364Z,0.45
2022-11-01T04:23:40.488Z,0.68
2022-11-01T04:26:07.513Z,0.57
2022-11-01T04:28:34.301Z,0.32
2022-11-01T04:31:00.973Z,0.60
2022-11-01T04:33:27.482Z,0.47
2022-11-01T04:35:57.120Z,0.57
2022-11-01T04:38:23.860Z,0.35
2022-11-01T04:40:50.385Z,0.88
2022-11-01T04:43:17.085Z,0.75
2022-11-01T04:45:43.675Z,0.75
2022-11-01T04:48:21.626Z,0.80
2022-11-01T04:50:48.453Z,0.70
2022-11-01T04:53:15.305Z,0.73
2022-11-01T04:55:41.811Z,0.63
2022-11-01T04:58:09.860Z,0.57
2022-11-01T05:00:38.071Z,0.55
2022-11-01T05:03:07.289Z,0.60
2022-11-01T05:05:34.752Z,0.47
2022-11-01T05:08:09.109Z,0.60
2022-11-01T05:10:40.517Z,0.57
2022-11-01T05:13:07.874Z,0.60
2022-11-01T05:15:40.184Z,0.68
2022-11-01T05:18:07.135Z,0.82
2022-11-01T05:20:33.705Z,0.70
2022-11-01T05:23:02.030Z,0.60
2022-11-01T05:25:31.481Z,0.68
2022-11-01T05:28:02.696Z,0.70
2022-11-01T05:30:29.549Z,0.45
2022-11-01T05:33:00.505Z,0.90
2022-11-01T05:35:28.813Z,0.60
2022-11-01T05:37:56.270Z,0.50
2022-11-01T05:40:24.184Z,0.50
2022-11-01T05:42:51.108Z,0.88
2022-11-01T05:45:20.407Z,0.60
2022-11-01T05:47:47.059Z,0.68
2022-11-01T05:50:17.936Z,0.77
2022-11-01T05:52:44.600Z,0.70
2022-11-01T05:55:11.251Z,0.70
2022-11-01T05:57:38.345Z,1.10
2022-11-01T06:00:08.467Z,0.65
2022-11-01T06:02:35.092Z,0.90
2022-11-01T06:05:03.284Z,0.68
2022-11-01T06:07:30.375Z,0.70
2022-11-01T06:09:56.909Z,0.77
2022-11-01T06:12:25.542Z,0.70
2022-11-01T06:14:52.300Z,0.50
2022-11-01T06:17:21.136Z,0.60
2022-11-01T06:19:47.672Z,0.80
2022-11-01T06:22:16.571Z,0.70
2022-11-01T06:24:45.378Z,1.35
2022-11-01T06:27:12.837Z,1.20
2022-11-01T06:29:39.625Z,0.90
2022-11-01T06:32:08.487Z,0.63
2022-11-01T06:34:35.035Z,1.17
2022-11-01T06:37:02.243Z,2.10
2022-11-01T06:39:28.752Z,1.00
2022-11-01T06:41:55.261Z,1.02
2022-11-01T06:44:22.141Z,1.17
2022-11-01T06:46:48.672Z,1.17
2022-11-01T06:49:19.210Z,0.90
2022-11-01T06:51:46.316Z,0.85
2022-11-01T06:54:15.342Z,1.10
2022-11-01T06:56:41.880Z,1.05
2022-11-01T06:59:10.657Z,1.30
2022-11-01T07:01:37.332Z,0.90
2022-11-01T07:04:04.198Z,1.20
2022-11-01T07:06:31.136Z,1.15
2022-11-01T07:09:00.981Z,1.00
2022-11-01T07:11:31.663Z,1.45
2022-11-01T07:14:01.156Z,1.45
2022-11-01T07:16:27.787Z,1.10
2022-11-01T07:18:54.458Z,1.13
2022-11-01T07:21:21.610Z,1.92
2022-11-01T07:23:48.069Z,1.75
2022-11-01T07:26:14.706Z,1.00
2022-11-01T07:28:41.319Z,1.85
2022-11-01T07:31:10.311Z,1.30
2022-11-01T07:33:36.986Z,1.60
2022-11-01T07:36:06.459Z,2.50
2022-11-01T07:38:32.989Z,1.98
2022-11-01T07:40:59.572Z,1.58
2022-11-01T07:43:26.226Z,1.60
2022-11-01T07:45:53.421Z,2.05
2022-11-01T07:48:20.832Z,1.85
2022-11-01T07:50:47.361Z,2.88
2022-11-01T07:53:17.182Z,1.60
2022-11-01T07:55:44.974Z,1.80
2022-11-01T07:58:17.106Z,2.25
2022-11-01T08:00:44.487Z,1.50
2022-11-01T08:03:16.253Z,2.17
2022-11-01T08:05:43.854Z,1.45
2022-11-01T08:08:14.018Z,1.63
2022-11-01T08:10:42.212Z,1.42
2022-11-01T08:13:21.720Z,1.85
2022-11-01T08:15:49.773Z,1.50
2022-11-01T08:18:19.117Z,1.70
2022-11-01T08:20:45.792Z,1.67
2022-11-01T08:23:12.767Z,1.60
2022-11-01T08:25:39.623Z,1.50
2022-11-01T08:28:12.056Z,1.80
2022-11-01T08:30:40.574Z,2.10
2022-11-01T08:33:07.282Z,6.05
2022-11-01T08:35:34.488Z,2.30
2022-11-01T08:38:04.127Z,2.92
2022-11-01T08:40:32.277Z,1.90
2022-11-01T08:42:59.362Z,2.35
2022-11-01T08:45:26.961Z,2.03
2022-11-01T08:47:58.279Z,2.40
2022-11-01T08:50:25.212Z,2.17
2022-11-01T08:52:52.019Z,2.35
2022-11-01T08:55:18.652Z,3.10
2022-11-01T08:57:45.175Z,4.30
2022-11-01T09:00:16.426Z,4.40
2022-11-01T09:02:43.218Z,3.85
2022-11-01T09:05:12.065Z,2.67
2022-11-01T09:07:38.712Z,2.38
2022-11-01T09:10:06.304Z,8.75
2022-11-01T09:12:33.142Z,4.18
2022-11-01T09:15:02.084Z,4.13
2022-11-01T09:17:29.061Z,2.60
2022-11-01T09:19:55.930Z,3.10
2022-11-01T09:22:23.192Z,2.30
2022-11-01T09:24:49.799Z,2.60
2022-11-01T09:27:16.387Z,2.20
2022-11-01T09:29:45.264Z,2.50
2022-11-01T09:32:14.553Z,3.13
2022-11-01T09:34:41.092Z,2.85
2022-11-01T09:37:07.579Z,3.08
2022-11-01T09:39:34.110Z,2.58
2022-11-01T09:42:10.543Z,2.45
2022-11-01T09:44:43.986Z,1.58
2022-11-01T09:47:21.437Z,1.35
2022-11-01T09:49:52.721Z,1.80
2022-11-01T09:52:22.365Z,1.45
2022-11-01T09:54:49.794Z,1.80
2022-11-01T09:57:26.709Z,1.70
2022-11-01T10:00:07.924Z,1.98
2022-11-01T10:03:14.412Z,1.60
2022-11-01T10:05:54.835Z,1.80
2022-11-01T10:08:37.085Z,1.63
2022-11-01T10:11:05.847Z,1.60
2022-11-01T10:13:50.916Z,1.67
2022-11-01T10:16:23.387Z,1.55
2022-11-01T10:19:21.989Z,1.85
2022-11-01T10:21:50.561Z,1.58
2022-11-01T10:24:39.006Z,1.50
2022-11-01T10:27:34.548Z,1.83
2022-11-01T10:30:11.201Z,1.42
2022-11-01T10:32:49.883Z,1.17
2022-11-01T10:35:22.583Z,2.05
2022-11-01T10:38:18.965Z,3.08
2022-11-01T10:41:01.612Z,2.35
2022-11-01T10:43:28.189Z,2.45
2022-11-01T10:45:57.970Z,2.40
2022-11-01T10:48:30.655Z,2.50
2022-11-01T10:51:01.250Z,2.25
2022-11-01T10:53:37.168Z,1.70
2022-11-01T10:56:09.136Z,1.75
2022-11-01T10:59:10.440Z,1.80
2022-11-01T11:01:42.691Z,1.83
2022-11-01T11:04:14.478Z,1.75
2022-11-01T11:06:42.361Z,1.77
2022-11-01T11:09:24.654Z,2.00
2022-11-01T11:11:53.561Z,1.60
2022-11-01T11:14:23.962Z,1.63
2022-11-01T11:16:55.506Z,1.90
2022-11-01T11:19:33.303Z,2.55
2022-11-01T11:22:02.811Z,2.15
2022-11-01T11:24:37.707Z,2.83
2022-11-01T11:27:12.684Z,1.63
2022-11-01T11:29:49.130Z,2.03
2022-11-01T11:32:20.010Z,2.58
2022-11-01T11:35:16.847Z,2.13
2022-11-01T11:37:58.171Z,2.13
2022-11-01T11:40:49.006Z,2.17
2022-11-01T11:43:31.717Z,1.77
2022-11-01T11:46:10.504Z,1.63
2022-11-01T11:48:58.436Z,2.03
2022-11-01T11:51:38.154Z,1.40
2022-11-01T11:54:31.511Z,1.70
2022-11-01T11:57:30.175Z,1.67
2022-11-01T12:00:03.106Z,1.35
2022-11-01T12:02:36.734Z,1.23
2022-11-01T12:05:07.255Z,1.30
2022-11-01T12:07:46.875Z,1.48
2022-11-01T12:10:37.056Z,1.55
2022-11-01T12:13:35.978Z,1.75
2022-11-01T12:16:11.524Z,1.42
2022-11-01T12:18:55.515Z,1.50
2022-11-01T12:21:48.934Z,1.13
2022-11-01T12:24:24.417Z,1.13
2022-11-01T12:26:54.305Z,1.13
2022-11-01T12:29:26.812Z,1.42
2022-11-01T12:31:56.259Z,2.35
2022-11-01T12:34:29.892Z,1.60
2022-11-01T12:37:03.142Z,1.33
2022-11-01T12:39:50.594Z,1.20
2022-11-01T12:42:28.721Z,1.40
2022-11-01T12:45:02.180Z,1.33
2022-11-01T12:47:38.879Z,1.23
2022-11-01T12:50:19.783Z,1.20
2022-11-01T12:52:58.361Z,1.40
2022-11-01T12:55:38.935Z,1.70
2022-11-01T12:58:13.296Z,1.30
2022-11-01T13:00:48.695Z,1.20
2022-11-01T13:03:21.388Z,1.70
2022-11-01T13:06:28.426Z,1.58
2022-11-01T13:09:16.337Z,1.73
2022-11-01T13:11:58.221Z,1.35
2022-11-01T13:14:43.274Z,1.50
2022-11-01T13:17:27.164Z,1.27
2022-11-01T13:20:09.276Z,1.08
2022-11-01T13:22:45.881Z,1.20
2022-11-01T13:25:35.919Z,1.30
2022-11-01T13:28:31.634Z,1.45
2022-11-01T13:31:35.356Z,2.05
2022-11-01T13:34:04.975Z,1.80
2022-11-01T13:37:00.704Z,1.15
2022-11-01T13:39:53.635Z,1.00
2022-11-01T13:42:55.702Z,1.05
2022-11-01T13:45:57.921Z,0.90
2022-11-01T13:48:30.395Z,1.20
2022-11-01T13:51:09.387Z,1.27
2022-11-01T13:53:45.634Z,1.17
2022-11-01T13:56:28.929Z,1.00
2022-11-01T13:58:56.216Z,1.00
2022-11-01T14:01:29.053Z,1.08
2022-11-01T14:04:11.130Z,1.45
2022-11-01T14:06:45.502Z,1.08
2022-11-01T14:09:32.451Z,1.38
2022-11-01T14:12:05.026Z,1.20
2022-11-01T14:14:31.458Z,1.55
2022-11-01T14:17:20.876Z,1.20
2022-11-01T14:19:49.932Z,1.08
2022-11-01T14:22:22.560Z,1.10
2022-11-01T14:24:57.648Z,1.20
2022-11-01T14:27:35.550Z,1.00
2022-11-01T14:30:12.278Z,0.80
2022-11-01T14:32:38.919Z,1.55
2022-11-01T14:35:12.004Z,1.33
2022-11-01T14:37:46.308Z,1.23
2022-11-01T14:40:21.988Z,1.10
2022-11-01T14:42:53.364Z,1.10
2022-11-01T14:45:29.294Z,0.98
2022-11-01T14:48:05.078Z,0.90
2022-11-01T14:50:48.100Z,1.27
2022-11-01T14:53:32.564Z,2.05
2022-11-01T14:56:06.363Z,1.65
2022-11-01T14:58:32.998Z,1.48
2022-11-01T15:01:05.996Z,1.58
2022-11-01T15:03:33.473Z,1.40
2022-11-01T15:06:02.325Z,1.10
2022-11-01T15:08:40.479Z,0.70
2022-11-01T15:11:07.837Z,0.93
2022-11-01T15:13:39.124Z,1.30
2022-11-01T15:16:21.739Z,1.35
2022-11-01T15:18:58.692Z,1.02
2022-11-01T15:21:30.831Z,1.40
2022-11-01T15:23:59.715Z,1.20
2022-11-01T15:26:35.451Z,1.00
2022-11-01T15:29:05.726Z,1.23
2022-11-01T15:31:34.833Z,1.30
2022-11-01T15:34:02.978Z,1.10
2022-11-01T15:36:33.615Z,1.33
2022-11-01T15:39:02.910Z,1.77
2022-11-01T15:41:34.729Z,1.55
2022-11-01T15:44:06.204Z,1.45
2022-11-01T15:46:38.942Z,1.50
2022-11-01T15:49:10.841Z,1.13
2022-11-01T15:51:42.581Z,1.20
2022-11-01T15:54:37.639Z,1.08
2022-11-01T15:57:17.438Z,1.48
2022-11-01T16:00:06.615Z,1.63
2022-11-01T16:02:56.013Z,1.63
2022-11-01T16:05:29.741Z,1.38
2022-11-01T16:07:58.412Z,1.10
2022-11-01T16:10:30.704Z,1.30
2022-11-01T16:12:59.930Z,1.17
2022-11-01T16:15:29.248Z,1.23
2022-11-01T16:17:59.999Z,1.30
2022-11-01T16:20:36.308Z,1.63
2022-11-01T16:23:24.555Z,1.50
2022-11-01T16:26:08.933Z,1.38
2022-11-01T16:28:45.574Z,1.55
2022-11-01T16:31:43.139Z,1.52
2022-11-01T16:34:23.894Z,1.17
2022-11-01T16:36:51.538Z,1.20
2022-11-01T16:39:31.358Z,1.40
2022-11-01T16:41:59.138Z,1.40
2022-11-01T16:44:28.049Z,1.40
2022-11-01T16:46:55.311Z,1.27
2022-11-01T16:49:24.423Z,1.23
2022-11-01T16:51:52.634Z,1.35
2022-11-01T16:54:21.489Z,1.45
2022-11-01T16:57:00.743Z,1.40
2022-11-01T16:59:38.070Z,1.55
2022-11-01T17:02:16.237Z,1.20
2022-11-01T17:04:44.144Z,1.15
2022-11-01T17:07:12.073Z,1.48
2022-11-01T17:09:39.725Z,1.60
2022-11-01T17:12:07.188Z,1.52
2022-11-01T17:14:35.781Z,1.38
2022-11-01T17:17:11.539Z,1.40
2022-11-01T17:19:43.395Z,1.67
2022-11-01T17:22:22.850Z,1.63
2022-11-01T17:24:49.448Z,1.70
2022-11-01T17:27:16.879Z,1.33
2022-11-01T17:29:45.735Z,1.80
2022-11-01T17:32:12.544Z,2.33
2022-11-01T17:34:39.290Z,1.60
2022-11-01T17:37:06.375Z,1.60
2022-11-01T17:39:33.050Z,1.60
2022-11-01T17:42:02.618Z,1.88
2022-11-01T17:44:29.166Z,1.20
2022-11-01T17:46:55.653Z,1.38
2022-11-01T17:49:24.306Z,1.60
2022-11-01T17:51:54.753Z,1.35
2022-11-01T17:56:52.632Z,1.52
2022-11-01T17:59:19.311Z,1.23
2022-11-01T18:01:48.467Z,1.40
2022-11-01T18:04:15.414Z,1.55
2022-11-01T18:06:42.474Z,1.35
2022-11-01T18:09:24.181Z,1.60
2022-11-01T18:12:02.219Z,1.25
2022-11-01T18:14:39.584Z,1.70
2022-11-01T18:17:27.614Z,1.70
2022-11-01T18:20:04.522Z,1.17
2022-11-01T18:23:10.141Z,1.83
2022-11-01T18:25:40.993Z,1.85
2022-11-01T18:28:15.850Z,1.42
2022-11-01T18:30:49.859Z,1.52
2022-11-01T18:33:38.364Z,1.65
2022-11-01T18:36:46.200Z,1.30
2022-11-01T18:39:21.352Z,1.95
2022-11-01T18:41:49.697Z,1.08
2022-11-01T18:44:16.864Z,1.40
2022-11-01T18:46:53.892Z,1.58
2022-11-01T18:49:22.441Z,1.30
2022-11-01T18:51:50.180Z,1.45
2022-11-01T18:54:23.399Z,1.55
2022-11-01T18:56:56.108Z,1.27
2022-11-01T18:59:24.616Z,1.50
2022-11-01T19:02:02.242Z,1.75
2022-11-01T19:04:35.550Z,1.30
2022-11-01T19:07:16.209Z,1.40
2022-11-01T19:09:48.089Z,1.80
2022-11-01T19:12:17.922Z,1.38
2022-11-01T19:14:48.794Z,1.40
2022-11-01T19:17:27.576Z,1.42
2022-11-01T19:19:56.369Z,1.52
2022-11-01T19:22:41.813Z,1.50
2022-11-01T19:25:36.152Z,1.63
2022-11-01T19:28:35.037Z,1.48
2022-11-01T19:31:27.399Z,2.13
2022-11-01T19:33:57.060Z,1.30
2022-11-01T19:36:30.120Z,1.95
2022-11-01T19:38:56.679Z,2.35
2022-11-01T19:41:29.816Z,1.58
2022-11-01T19:43:59.399Z,2.00
2022-11-01T19:46:26.262Z,1.88
2022-11-01T19:48:53.397Z,1.48
2022-11-01T19:51:23.578Z,1.50
2022-11-01T19:53:51.408Z,1.60
2022-11-01T19:56:24.293Z,1.50
2022-11-01T19:58:55.368Z,2.10
2022-11-01T20:01:31.024Z,1.60
2022-11-01T20:04:28.970Z,1.70
2022-11-01T20:07:13.799Z,1.40
2022-11-01T20:09:40.384Z,1.67
2022-11-01T20:12:08.089Z,1.05
2022-11-01T20:14:35.364Z,1.67
2022-11-01T20:17:02.216Z,1.85
2022-11-01T20:19:29.349Z,1.85
2022-11-01T20:21:55.984Z,1.95
2022-11-01T20:24:22.917Z,1.70
2022-11-01T20:26:50.726Z,1.75
2022-11-01T20:29:17.246Z,1.50
2022-11-01T20:31:43.814Z,1.80
2022-11-01T20:34:10.347Z,1.55
2022-11-01T20:36:36.917Z,1.90
2022-11-01T20:39:03.538Z,1.65
2022-11-01T20:41:30.220Z,2.05
2022-11-01T20:43:56.803Z,2.03
2022-11-01T20:46:23.989Z,1.80
2022-11-01T20:48:53.074Z,1.55
2022-11-01T20:51:21.722Z,1.70
2022-11-01T20:53:48.295Z,1.65
2022-11-01T20:56:14.808Z,1.50
2022-11-01T20:58:41.306Z,1.63
2022-11-01T21:01:19.430Z,2.28
2022-11-01T21:03:46.371Z,2.28
2022-11-01T21:06:17.712Z,2.20
2022-11-01T21:08:49.019Z,1.60
2022-11-01T21:11:44.449Z,1.58
2022-11-01T21:14:18.706Z,1.52
2022-11-01T21:16:46.395Z,1.20
2022-11-01T21:19:23.715Z,1.50
2022-11-01T21:21:58.369Z,1.73
2022-11-01T21:24:44.351Z,1.92
2022-11-01T21:27:10.952Z,1.90
2022-11-01T21:29:44.786Z,1.77
2022-11-01T21:32:30.008Z,1.10
2022-11-01T21:34:58.219Z,1.65
2022-11-01T21:37:28.522Z,1.70
2022-11-01T21:40:03.180Z,1.80
2022-11-01T21:42:33.970Z,2.00
2022-11-01T21:45:02.787Z,2.05
2022-11-01T21:47:31.302Z,1.60
2022-11-01T21:49:58.377Z,1.48
2022-11-01T21:52:25.049Z,1.55
2022-11-01T21:54:53.813Z,1.65
2022-11-01T21:57:22.833Z,1.92
2022-11-01T21:59:51.932Z,1.95
2022-11-01T22:02:18.527Z,2.00
2022-11-01T22:04:45.365Z,1.67
2022-11-01T22:07:14.053Z,1.50
2022-11-01T22:09:40.643Z,1.88
2022-11-01T22:12:07.857Z,1.65
2022-11-01T22:14:34.997Z,1.73
2022-11-01T22:17:01.615Z,1.98
2022-11-01T22:19:28.167Z,1.90
2022-11-01T22:21:57.259Z,1.75
2022-11-01T22:24:23.932Z,1.88
2022-11-01T22:26:50.516Z,1.65
2022-11-01T22:29:22.295Z,1.77
2022-11-01T22:31:48.823Z,2.00
2022-11-01T22:34:17.735Z,1.90
2022-11-01T22:36:44.260Z,2.38
2022-11-01T22:39:17.045Z,1.75
2022-11-01T22:41:43.934Z,1.52
2022-11-01T22:44:14.400Z,1.73
2022-11-01T22:46:53.652Z,1.90
2022-11-01T22:49:30.914Z,2.58
2022-11-01T22:52:16.990Z,1.80
2022-11-01T22:54:49.822Z,1.98
2022-11-01T22:57:23.634Z,2.00
2022-11-01T22:59:53.362Z,1.88
2022-11-01T23:02:28.892Z,1.48
2022-11-01T23:05:07.736Z,1.90
2022-11-01T23:07:35.748Z,2.20
2022-11-01T23:10:34.950Z,1.60
2022-11-01T23:13:51.524Z,2.45
2022-11-01T23:16:21.110Z,1.65
2022-11-01T23:18:48.150Z,1.77
2022-11-01T23:21:14.731Z,1.98
2022-11-01T23:23:44.973Z,1.75
2022-11-01T23:26:12.961Z,1.67
2022-11-01T23:28:48.758Z,2.03
2022-11-01T23:31:16.384Z,1.88
2022-11-01T23:33:48.634Z,1.98
2022-11-01T23:36:15.111Z,1.50
2022-11-01T23:38:49.696Z,1.70
2022-11-01T23:41:22.682Z,1.45
2022-11-01T23:43:52.085Z,1.55
2022-11-01T23:46:19.405Z,1.38
2022-11-01T23:48:46.985Z,1.25
2022-11-01T23:51:20.958Z,1.58
2022-11-01T23:53:51.242Z,1.52
2022-11-01T23:56:19.604Z,1.23
2022-11-01T23:58:54.107Z,1.33
